createdAt,value
2023-05-16T00:00:30.475Z,7.4
2023-05-16T00:01:39.122Z,7.8
2023-05-16T00:02:47.543Z,7.8
2023-05-16T00:03:55.873Z,7.8
2023-05-16T00:05:04.362Z,7.1
2023-05-16T00:06:12.702Z,7.1
2023-05-16T00:07:21.053Z,7.1
2023-05-16T00:08:29.589Z,7.2
2023-05-16T00:09:37.970Z,7.2
2023-05-16T00:10:46.323Z,7.2
2023-05-16T00:11:54.876Z,7.4
2023-05-16T00:13:03.239Z,7.4
2023-05-16T00:14:11.587Z,7.4
2023-05-16T00:15:20.147Z,7.6
2023-05-16T00:16:28.558Z,7.6
2023-05-16T00:17:36.844Z,7.6
2023-05-16T00:18:45.363Z,7.8
2023-05-16T00:19:53.689Z,7.8
2023-05-16T00:21:02.023Z,7.8
2023-05-16T00:22:10.572Z,7.6
2023-05-16T00:23:18.956Z,7.6
2023-05-16T00:24:27.257Z,7.6
2023-05-16T00:25:35.805Z,6.9
2023-05-16T00:26:44.137Z,6.9
2023-05-16T00:27:52.473Z,6.9
2023-05-16T00:29:01.016Z,7.6
2023-05-16T00:30:09.354Z,7.6
2023-05-16T00:31:17.719Z,7.6
2023-05-16T00:32:26.315Z,8.3
2023-05-16T00:33:34.585Z,8.3
2023-05-16T00:34:42.933Z,8.3
2023-05-16T00:35:51.473Z,8
2023-05-16T00:36:59.803Z,8
2023-05-16T00:38:08.173Z,8
2023-05-16T00:39:16.709Z,8.7
2023-05-16T00:40:25.441Z,8.7
2023-05-16T00:41:33.406Z,8.7
2023-05-16T00:42:41.958Z,8.6
2023-05-16T00:43:50.293Z,8.6
2023-05-16T00:44:58.632Z,8.6
2023-05-16T00:46:07.177Z,8.4
2023-05-16T00:47:15.527Z,8.4
2023-05-16T00:48:23.878Z,8.4
2023-05-16T00:49:32.395Z,8.3
2023-05-16T00:50:40.740Z,8.3
2023-05-16T00:51:49.133Z,8.3
2023-05-16T00:52:57.629Z,9.2
2023-05-16T00:54:05.985Z,9.2
2023-05-16T00:55:14.320Z,9.2
2023-05-16T00:56:22.888Z,8.7
2023-05-16T00:57:31.214Z,8.7
2023-05-16T00:58:39.563Z,8.7
2023-05-16T00:59:48.127Z,9.3
2023-05-16T01:00:56.471Z,9.3
2023-05-16T01:02:04.844Z,9.3
2023-05-16T01:03:13.524Z,9.5
2023-05-16T01:04:21.734Z,9.5
2023-05-16T01:05:30.161Z,9.5
2023-05-16T01:06:38.598Z,8.6
2023-05-16T01:07:46.938Z,8.6
2023-05-16T01:08:55.271Z,8.6
2023-05-16T01:10:03.869Z,9
2023-05-16T01:11:12.168Z,9
2023-05-16T01:12:20.524Z,9
2023-05-16T01:13:29.071Z,10
2023-05-16T01:14:37.413Z,10
2023-05-16T01:15:45.793Z,10
2023-05-16T01:16:54.323Z,9.5
2023-05-16T01:18:02.706Z,9.5
2023-05-16T01:19:11.061Z,9.5
2023-05-16T01:20:19.615Z,8.9
2023-05-16T01:21:27.935Z,8.9
2023-05-16T01:22:36.296Z,8.9
2023-05-16T01:23:44.853Z,9.4
2023-05-16T01:24:53.191Z,9.4
2023-05-16T01:26:01.527Z,9.4
2023-05-16T01:27:10.082Z,9.6
2023-05-16T01:28:18.408Z,9.6
2023-05-16T01:29:26.745Z,9.6
2023-05-16T01:30:35.303Z,9.5
2023-05-16T01:31:43.674Z,9.5
2023-05-16T01:32:52.018Z,9.5
2023-05-16T01:34:00.537Z,10.3
2023-05-16T01:35:08.889Z,10.3
2023-05-16T01:36:17.389Z,10.3
2023-05-16T01:37:25.791Z,10.8
2023-05-16T01:38:34.140Z,10.8
2023-05-16T01:39:42.464Z,10.8
2023-05-16T01:40:51.007Z,10.4
2023-05-16T01:41:59.344Z,10.4
2023-05-16T01:43:07.685Z,10.4
2023-05-16T01:44:16.233Z,10.5
2023-05-16T01:45:24.798Z,10.5
2023-05-16T01:46:32.935Z,10.5
2023-05-16T01:47:41.483Z,10.6
2023-05-16T01:48:49.774Z,10.6
2023-05-16T01:49:58.113Z,10.6
2023-05-16T01:51:06.659Z,10.3
2023-05-16T01:52:15.022Z,10.3
2023-05-16T01:53:23.335Z,10.3
2023-05-16T01:54:31.879Z,10.6
2023-05-16T01:55:40.212Z,10.6
2023-05-16T01:56:48.570Z,10.6
2023-05-16T01:57:57.110Z,10.6
2023-05-16T01:59:05.441Z,10.6
2023-05-16T02:00:13.778Z,10.6
2023-05-16T02:01:22.345Z,11.2
2023-05-16T02:02:30.684Z,11.2
2023-05-16T02:03:39.024Z,11.2
2023-05-16T02:04:47.564Z,11.9
2023-05-16T02:05:55.902Z,11.9
2023-05-16T02:07:04.254Z,11.9
2023-05-16T02:08:12.857Z,12.5
2023-05-16T02:09:21.184Z,12.5
2023-05-16T02:10:29.520Z,12.5
2023-05-16T02:11:38.074Z,12
2023-05-16T02:12:46.426Z,12
2023-05-16T02:13:54.745Z,12
2023-05-16T02:15:03.298Z,12.9
2023-05-16T02:16:11.731Z,12.9
2023-05-16T02:17:20.039Z,12.9
2023-05-16T02:18:28.540Z,12.8
2023-05-16T02:19:36.881Z,12.8
2023-05-16T02:20:45.224Z,12.8
2023-05-16T02:21:53.780Z,13
2023-05-16T02:23:02.124Z,13
2023-05-16T02:24:10.482Z,13
2023-05-16T02:25:19.005Z,13.2
2023-05-16T02:26:27.368Z,13.2
2023-05-16T02:27:35.710Z,13.2
2023-05-16T02:28:44.250Z,12.3
2023-05-16T02:29:52.591Z,12.3
2023-05-16T02:31:00.950Z,12.3
2023-05-16T02:32:09.503Z,13
2023-05-16T02:33:17.829Z,13
2023-05-16T02:34:26.168Z,13
2023-05-16T02:35:34.743Z,13.8
2023-05-16T02:36:43.087Z,13.8
2023-05-16T02:37:51.420Z,13.8
2023-05-16T02:38:59.971Z,13.4
2023-05-16T02:40:08.344Z,13.4
2023-05-16T02:41:16.649Z,13.4
2023-05-16T02:42:25.207Z,13.2
2023-05-16T02:43:33.554Z,13.2
2023-05-16T02:44:42.017Z,13.2
2023-05-16T02:45:52.162Z,13.7
2023-05-16T02:47:00.451Z,13.7
2023-05-16T02:48:08.836Z,13.7
2023-05-16T02:49:17.331Z,13.8
2023-05-16T02:50:25.667Z,13.8
2023-05-16T02:51:34.006Z,13.8
2023-05-16T02:52:42.570Z,14.4
2023-05-16T02:53:50.909Z,14.4
2023-05-16T02:55:16.486Z,14.4
2023-05-16T02:56:07.813Z,13.8
2023-05-16T02:57:16.133Z,13.8
2023-05-16T02:58:24.507Z,13.8
2023-05-16T02:59:33.068Z,14.3
2023-05-16T03:00:41.395Z,14.3
2023-05-16T03:01:49.791Z,14.3
2023-05-16T03:02:58.419Z,14.3
2023-05-16T03:04:06.691Z,14.3
2023-05-16T03:05:14.984Z,14.3
2023-05-16T03:06:23.513Z,14.3
2023-05-16T03:07:31.876Z,14.3
2023-05-16T03:08:40.252Z,14.3
2023-05-16T03:09:48.803Z,14
2023-05-16T03:10:57.142Z,14
2023-05-16T03:12:06.976Z,14
2023-05-16T03:13:14.020Z,15
2023-05-16T03:14:22.365Z,15
2023-05-16T03:15:30.698Z,15
2023-05-16T03:16:39.351Z,15.6
2023-05-16T03:17:47.681Z,15.6
2023-05-16T03:18:55.996Z,15.6
2023-05-16T03:20:04.526Z,15.6
2023-05-16T03:21:12.862Z,15.6
2023-05-16T03:22:21.245Z,15.6
2023-05-16T03:23:29.754Z,15.4
2023-05-16T03:24:38.167Z,15.4
2023-05-16T03:25:46.452Z,15.4
2023-05-16T03:26:55.012Z,15.7
2023-05-16T03:28:03.460Z,15.7
2023-05-16T03:29:11.715Z,15.7
2023-05-16T03:30:20.267Z,15.4
2023-05-16T03:31:28.647Z,15.4
2023-05-16T03:32:36.986Z,15.4
2023-05-16T03:33:45.512Z,16.299999
2023-05-16T03:34:53.847Z,16.299999
2023-05-16T03:36:02.179Z,16.299999
2023-05-16T03:37:10.780Z,16.9
2023-05-16T03:38:19.101Z,16.9
2023-05-16T03:39:27.483Z,16.9
2023-05-16T03:40:36.006Z,17.4
2023-05-16T03:41:44.353Z,17.4
2023-05-16T03:42:52.675Z,17.4
2023-05-16T03:44:01.237Z,18.6
2023-05-16T03:45:09.538Z,18.6
2023-05-16T03:46:17.915Z,18.6
2023-05-16T03:47:26.423Z,18.200001
2023-05-16T03:48:34.755Z,18.200001
2023-05-16T03:49:43.124Z,18.200001
2023-05-16T03:50:51.679Z,19.200001
2023-05-16T03:52:00.004Z,19.200001
2023-05-16T03:53:08.342Z,19.200001
2023-05-16T03:54:16.922Z,19.299999
2023-05-16T03:55:25.517Z,19.299999
2023-05-16T03:56:33.602Z,19.299999
2023-05-16T03:57:42.138Z,20.6
2023-05-16T03:58:50.456Z,20.6
2023-05-16T03:59:58.841Z,20.6
2023-05-16T04:01:07.384Z,19.5
2023-05-16T04:02:17.479Z,19.5
2023-05-16T04:03:24.086Z,19.5
2023-05-16T04:04:32.614Z,19.200001
2023-05-16T04:05:40.997Z,19.200001
2023-05-16T04:06:49.310Z,19.200001
2023-05-16T04:07:57.848Z,19.5
2023-05-16T04:09:06.207Z,19.5
2023-05-16T04:10:14.536Z,19.5
2023-05-16T04:11:23.085Z,18.9
2023-05-16T04:12:31.434Z,18.9
2023-05-16T04:13:39.792Z,18.9
2023-05-16T04:14:48.340Z,17.799999
2023-05-16T04:15:56.703Z,17.799999
2023-05-16T04:17:05.059Z,17.799999
2023-05-16T04:18:13.574Z,18.5
2023-05-16T04:19:21.973Z,18.5
2023-05-16T04:20:31.662Z,18.5
2023-05-16T04:21:38.791Z,18.9
2023-05-16T04:22:47.129Z,18.9
2023-05-16T04:23:55.510Z,18.9
2023-05-16T04:25:04.102Z,19.299999
2023-05-16T04:26:12.408Z,19.299999
2023-05-16T04:27:20.764Z,19.299999
2023-05-16T04:28:29.327Z,19.1
2023-05-16T04:29:37.664Z,19.1
2023-05-16T04:30:46.022Z,19.1
2023-05-16T04:31:54.704Z,19
2023-05-16T04:33:03.005Z,19
2023-05-16T04:34:11.278Z,19
2023-05-16T04:35:19.832Z,19.299999
2023-05-16T04:36:28.155Z,19.299999
2023-05-16T04:37:36.497Z,19.299999
2023-05-16T04:38:45.059Z,18.5
2023-05-16T04:39:53.403Z,18.5
2023-05-16T04:41:01.736Z,18.5
2023-05-16T04:42:10.285Z,18.799999
2023-05-16T04:43:18.632Z,18.799999
2023-05-16T04:44:26.975Z,18.799999
2023-05-16T04:45:37.378Z,18.4
2023-05-16T04:46:43.895Z,18.4
2023-05-16T04:47:52.242Z,18.4
2023-05-16T04:49:00.755Z,19
2023-05-16T04:50:09.095Z,19
2023-05-16T04:51:17.439Z,19
2023-05-16T04:52:25.988Z,19.299999
2023-05-16T04:53:34.354Z,19.299999
2023-05-16T04:54:42.684Z,19.299999
2023-05-16T04:55:51.253Z,18.700001
2023-05-16T04:56:59.578Z,18.700001
2023-05-16T04:58:07.921Z,18.700001
2023-05-16T04:59:16.457Z,19.200001
2023-05-16T05:00:24.870Z,19.200001
2023-05-16T05:01:33.199Z,19.200001
2023-05-16T05:02:41.769Z,18
2023-05-16T05:03:50.092Z,18
2023-05-16T05:04:58.411Z,18
2023-05-16T05:06:06.961Z,19.1
2023-05-16T05:07:15.308Z,19.1
2023-05-16T05:08:23.636Z,19.1
2023-05-16T05:09:32.197Z,18.299999
2023-05-16T05:10:40.553Z,18.299999
2023-05-16T05:11:48.899Z,18.299999
2023-05-16T05:12:57.454Z,18.9
2023-05-16T05:14:05.824Z,18.9
2023-05-16T05:15:14.169Z,18.9
2023-05-16T05:16:22.711Z,18.200001
2023-05-16T05:17:31.122Z,18.200001
2023-05-16T05:18:39.478Z,18.200001
2023-05-16T05:19:48.006Z,18.700001
2023-05-16T05:20:56.383Z,18.700001
2023-05-16T05:22:04.718Z,18.700001
2023-05-16T05:23:13.261Z,18.9
2023-05-16T05:24:21.614Z,18.9
2023-05-16T05:25:30.071Z,18.9
2023-05-16T05:26:38.553Z,22.6
2023-05-16T05:27:46.923Z,22.6
2023-05-16T05:29:04.290Z,22.6
2023-05-16T05:30:03.841Z,34.200001
2023-05-16T05:31:12.206Z,34.200001
2023-05-16T05:32:20.506Z,34.200001
2023-05-16T05:33:29.062Z,122.09999
2023-05-16T05:34:37.427Z,122.09999
2023-05-16T05:35:45.780Z,122.09999
2023-05-16T05:36:54.298Z,162.8
2023-05-16T05:38:02.615Z,162.8
2023-05-16T05:39:10.966Z,162.8
2023-05-16T05:40:19.499Z,166.5
2023-05-16T05:41:27.837Z,166.5
2023-05-16T05:42:36.168Z,166.5
2023-05-16T05:43:44.714Z,140.8
2023-05-16T05:44:53.058Z,140.8
2023-05-16T05:46:01.464Z,140.8
2023-05-16T05:47:09.935Z,64.099998
2023-05-16T05:48:18.293Z,64.099998
2023-05-16T05:49:26.632Z,64.099998
2023-05-16T05:50:35.970Z,25.9
2023-05-16T05:51:44.630Z,25.9
2023-05-16T05:52:52.953Z,25.9
2023-05-16T05:54:01.524Z,71.599998
2023-05-16T05:55:09.871Z,71.599998
2023-05-16T05:56:18.195Z,71.599998
2023-05-16T05:57:26.741Z,30.5
2023-05-16T05:58:35.093Z,30.5
2023-05-16T05:59:43.421Z,30.5
2023-05-16T06:00:52.004Z,17.5
2023-05-16T06:02:00.371Z,17.5
2023-05-16T06:03:08.703Z,17.5
2023-05-16T06:04:17.226Z,52.599998
2023-05-16T06:05:25.706Z,52.599998
2023-05-16T06:06:33.937Z,52.599998
2023-05-16T06:07:42.536Z,124.4
2023-05-16T06:08:50.837Z,124.4
2023-05-16T06:09:59.193Z,124.4
2023-05-16T06:11:07.728Z,80.800003
2023-05-16T06:12:16.082Z,80.800003
2023-05-16T06:13:24.420Z,80.800003
2023-05-16T06:14:32.957Z,85.800003
2023-05-16T06:15:41.291Z,85.800003
2023-05-16T06:16:49.682Z,85.800003
2023-05-16T06:17:58.281Z,42.900002
2023-05-16T06:19:06.591Z,42.900002
2023-05-16T06:20:14.930Z,42.900002
2023-05-16T06:21:23.489Z,39.799999
2023-05-16T06:22:32.589Z,39.799999
2023-05-16T06:23:41.040Z,39.799999
2023-05-16T06:24:49.478Z,73.300003
2023-05-16T06:25:57.824Z,73.300003
2023-05-16T06:27:06.161Z,73.300003
2023-05-16T06:28:14.706Z,373.70001
2023-05-16T06:29:23.090Z,373.70001
2023-05-16T06:30:31.463Z,373.70001
2023-05-16T06:31:40.027Z,60.099998
2023-05-16T06:32:48.377Z,60.099998
2023-05-16T06:33:56.759Z,60.099998
2023-05-16T06:35:05.306Z,23.200001
2023-05-16T06:36:13.625Z,23.200001
2023-05-16T06:37:21.967Z,23.200001
2023-05-16T06:38:30.529Z,33.400002
2023-05-16T06:39:38.916Z,33.400002
2023-05-16T06:40:47.242Z,33.400002
2023-05-16T06:41:56.656Z,21.700001
2023-05-16T06:43:04.158Z,21.700001
2023-05-16T06:44:12.511Z,21.700001
2023-05-16T06:45:21.084Z,11.6
2023-05-16T06:46:29.519Z,11.6
2023-05-16T06:47:37.857Z,11.6
2023-05-16T06:48:46.328Z,11.9
2023-05-16T06:49:54.713Z,11.9
2023-05-16T06:51:03.033Z,11.9
2023-05-16T06:52:11.606Z,10.8
2023-05-16T06:53:19.942Z,10.8
2023-05-16T06:54:28.279Z,10.8
2023-05-16T06:55:36.953Z,20.799999
2023-05-16T06:56:45.231Z,20.799999
2023-05-16T06:57:53.566Z,20.799999
2023-05-16T06:59:02.144Z,14.7
2023-05-16T07:00:10.483Z,14.7
2023-05-16T07:01:18.845Z,14.7
2023-05-16T07:02:27.417Z,17.6
2023-05-16T07:03:35.744Z,17.6
2023-05-16T07:04:44.057Z,17.6
2023-05-16T07:05:52.605Z,16.9
2023-05-16T07:07:00.942Z,16.9
2023-05-16T07:08:09.273Z,16.9
2023-05-16T07:09:17.835Z,16.1
2023-05-16T07:10:26.198Z,16.1
2023-05-16T07:11:34.880Z,16.1
2023-05-16T07:12:43.422Z,10.9
2023-05-16T07:13:51.745Z,10.9
2023-05-16T07:15:00.155Z,10.9
2023-05-16T07:16:08.689Z,10
2023-05-16T07:17:17.006Z,10
2023-05-16T07:18:25.375Z,10
2023-05-16T07:19:33.939Z,10.7
2023-05-16T07:20:42.378Z,10.7
2023-05-16T07:21:50.740Z,10.7
2023-05-16T07:22:59.306Z,11.5
2023-05-16T07:24:08.582Z,11.5
2023-05-16T07:25:17.601Z,11.5
2023-05-16T07:26:26.150Z,13.3
2023-05-16T07:27:34.509Z,13.3
2023-05-16T07:28:42.824Z,13.3
2023-05-16T07:29:51.366Z,14.1
2023-05-16T07:31:00.669Z,14.1
2023-05-16T07:32:09.100Z,14.1
2023-05-16T07:33:17.580Z,10.6
2023-05-16T07:34:25.928Z,10.6
2023-05-16T07:35:34.283Z,10.6
2023-05-16T07:36:42.854Z,15.3
2023-05-16T07:37:51.201Z,15.3
2023-05-16T07:38:59.535Z,15.3
2023-05-16T07:40:08.101Z,21.299999
2023-05-16T07:41:16.451Z,21.299999
2023-05-16T07:42:24.785Z,21.299999
2023-05-16T07:43:33.401Z,8.2
2023-05-16T07:44:41.674Z,8.2
2023-05-16T07:45:50.008Z,8.2
2023-05-16T07:46:58.558Z,10
2023-05-16T07:48:06.929Z,10
2023-05-16T07:49:15.391Z,10
2023-05-16T07:50:23.806Z,10
2023-05-16T07:51:32.107Z,10
2023-05-16T07:52:40.479Z,10
2023-05-16T07:53:49.058Z,10.7
2023-05-16T07:54:57.399Z,10.7
2023-05-16T07:56:05.751Z,10.7
2023-05-16T07:57:14.320Z,8.9
2023-05-16T07:58:22.722Z,8.9
2023-05-16T07:59:31.322Z,8.9
2023-05-16T08:00:39.573Z,11.2
2023-05-16T08:01:47.911Z,11.2
2023-05-16T08:02:56.312Z,11.2
2023-05-16T08:04:04.864Z,9
2023-05-16T08:05:13.221Z,9
2023-05-16T08:06:21.491Z,9
2023-05-16T08:07:30.097Z,9.3
2023-05-16T08:08:38.454Z,9.3
2023-05-16T08:09:46.770Z,9.3
2023-05-16T08:10:55.309Z,8.9
2023-05-16T08:12:03.848Z,8.9
2023-05-16T08:13:12.004Z,8.9
2023-05-16T08:14:20.624Z,9.8
2023-05-16T08:15:29.316Z,9.8
2023-05-16T08:16:37.449Z,9.8
2023-05-16T08:17:45.970Z,8.4
2023-05-16T08:18:54.302Z,8.4
2023-05-16T08:20:02.701Z,8.4
2023-05-16T08:21:11.258Z,9.3
2023-05-16T08:22:19.588Z,9.3
2023-05-16T08:23:27.944Z,9.3
2023-05-16T08:24:37.488Z,10.1
2023-05-16T08:25:45.838Z,10.1
2023-05-16T08:26:54.196Z,10.1
2023-05-16T08:28:02.762Z,9.8
2023-05-16T08:29:11.108Z,9.8
2023-05-16T08:30:19.476Z,9.8
2023-05-16T08:31:28.097Z,9.5
2023-05-16T08:32:36.382Z,9.5
2023-05-16T08:33:44.714Z,9.5
2023-05-16T08:34:53.265Z,9.8
2023-05-16T08:36:01.654Z,9.8
2023-05-16T08:37:10.121Z,9.8
2023-05-16T08:38:19.125Z,9.3
2023-05-16T08:39:27.498Z,9.3
2023-05-16T08:40:35.845Z,9.3
2023-05-16T08:41:44.422Z,9.2
2023-05-16T08:42:52.806Z,9.2
2023-05-16T08:44:01.158Z,9.2
2023-05-16T08:45:09.889Z,8.8
2023-05-16T08:46:18.270Z,8.8
2023-05-16T08:47:37.091Z,8.8
2023-05-16T08:48:45.571Z,8.8
2023-05-16T08:49:53.935Z,8.8
2023-05-16T08:51:02.300Z,8.8
2023-05-16T08:52:10.858Z,8.4
2023-05-16T08:53:19.258Z,8.4
2023-05-16T08:54:28.132Z,8.4
2023-05-16T08:55:36.168Z,9.1
2023-05-16T08:56:44.518Z,9.1
2023-05-16T08:57:52.864Z,9.1
2023-05-16T08:59:01.406Z,8.5
2023-05-16T09:00:09.738Z,8.5
2023-05-16T09:01:18.161Z,8.5
2023-05-16T09:02:26.692Z,8.7
2023-05-16T09:03:35.062Z,8.7
2023-05-16T09:04:43.354Z,8.7
2023-05-16T09:05:51.900Z,7.9
2023-05-16T09:07:00.262Z,7.9
2023-05-16T09:08:08.609Z,7.9
2023-05-16T09:09:17.153Z,8
2023-05-16T09:10:25.477Z,8
2023-05-16T09:11:35.547Z,8
2023-05-16T09:12:42.415Z,8.7
2023-05-16T09:13:50.762Z,8.7
2023-05-16T09:14:59.146Z,8.7
2023-05-16T09:16:07.717Z,7.7
2023-05-16T09:17:18.403Z,7.7
2023-05-16T09:18:24.488Z,7.7
2023-05-16T09:19:33.108Z,7.5
2023-05-16T09:20:41.352Z,7.5
2023-05-16T09:21:49.775Z,7.5
2023-05-16T09:22:58.261Z,7.7
2023-05-16T09:24:06.636Z,7.7
2023-05-16T09:25:28.256Z,7.7
2023-05-16T09:26:23.676Z,7.5
2023-05-16T09:27:31.871Z,7.5
2023-05-16T09:28:40.304Z,7.5
2023-05-16T09:29:48.861Z,7.1
2023-05-16T09:30:57.372Z,7.1
2023-05-16T09:32:05.696Z,7.1
2023-05-16T09:33:14.267Z,7.1
2023-05-16T09:34:22.576Z,7.1
2023-05-16T09:35:43.684Z,7.1
2023-05-16T09:36:40.618Z,7.2
2023-05-16T09:37:47.798Z,7.2
2023-05-16T09:38:56.125Z,7.2
2023-05-16T09:40:04.701Z,6.8
2023-05-16T09:41:13.022Z,6.8
2023-05-16T09:42:21.380Z,6.8
2023-05-16T09:43:29.928Z,6.6
2023-05-16T09:44:38.274Z,6.6
2023-05-16T09:45:46.636Z,6.6
2023-05-16T09:46:55.334Z,6.6
2023-05-16T09:48:03.566Z,6.6
2023-05-16T09:49:11.863Z,6.6
2023-05-16T09:50:20.469Z,6.8
2023-05-16T09:51:28.854Z,6.8
2023-05-16T09:52:37.077Z,6.8
2023-05-16T09:53:45.635Z,6.6
2023-05-16T09:54:53.974Z,6.6
2023-05-16T09:56:02.354Z,6.6
2023-05-16T09:57:10.886Z,7.1
2023-05-16T09:58:19.360Z,7.1
2023-05-16T09:59:27.754Z,7.1
2023-05-16T10:00:36.320Z,6.7
2023-05-16T10:01:44.728Z,6.7
2023-05-16T10:02:53.083Z,6.7
2023-05-16T10:04:01.690Z,6.5
2023-05-16T10:05:10.040Z,6.5
2023-05-16T10:06:18.375Z,6.5
2023-05-16T10:07:27.094Z,6.8
2023-05-16T10:08:35.326Z,6.8
2023-05-16T10:09:43.681Z,6.8
2023-05-16T10:10:52.241Z,6.6
2023-05-16T10:12:00.584Z,6.6
2023-05-16T10:13:08.945Z,6.6
2023-05-16T10:14:17.527Z,6.3
2023-05-16T10:15:26.138Z,6.3
2023-05-16T10:16:34.214Z,6.3
2023-05-16T10:17:42.795Z,6.2
2023-05-16T10:18:51.172Z,6.2
2023-05-16T10:19:59.519Z,6.2
2023-05-16T10:21:09.708Z,7.2
2023-05-16T10:22:16.467Z,7.2
2023-05-16T10:23:25.631Z,7.2
2023-05-16T10:24:34.111Z,6.9
2023-05-16T10:25:42.477Z,6.9
2023-05-16T10:26:50.813Z,6.9
2023-05-16T10:27:59.391Z,6.5
2023-05-16T10:29:07.736Z,6.5
2023-05-16T10:30:16.293Z,6.5
2023-05-16T10:31:24.706Z,6.3
2023-05-16T10:32:33.039Z,6.3
2023-05-16T10:33:41.406Z,6.3
2023-05-16T10:34:49.907Z,7.1
2023-05-16T10:35:58.244Z,7.1
2023-05-16T10:37:06.607Z,7.1
2023-05-16T10:38:15.160Z,7.2
2023-05-16T10:39:23.530Z,7.2
2023-05-16T10:40:31.831Z,7.2
2023-05-16T10:41:40.397Z,7.6
2023-05-16T10:42:48.749Z,7.6
2023-05-16T10:43:57.102Z,7.6
2023-05-16T10:45:06.221Z,6.7
2023-05-16T10:46:14.042Z,6.7
2023-05-16T10:47:22.345Z,6.7
2023-05-16T10:48:30.879Z,7.2
2023-05-16T10:49:39.234Z,7.2
2023-05-16T10:50:47.595Z,7.2
2023-05-16T10:51:56.198Z,8.9
2023-05-16T10:53:04.531Z,8.9
2023-05-16T10:54:12.896Z,8.9
2023-05-16T10:55:21.493Z,7.6
2023-05-16T10:56:29.964Z,7.6
2023-05-16T10:57:38.318Z,7.6
2023-05-16T10:58:46.878Z,7.5
2023-05-16T10:59:56.126Z,7.5
2023-05-16T11:01:03.598Z,7.5
2023-05-16T11:02:12.166Z,7.1
2023-05-16T11:03:20.557Z,7.1
2023-05-16T11:04:28.842Z,7.1
2023-05-16T11:05:37.464Z,7.5
2023-05-16T11:06:45.754Z,7.5
2023-05-16T11:07:54.101Z,7.5
2023-05-16T11:09:02.635Z,7
2023-05-16T11:10:11.029Z,7
2023-05-16T11:11:19.476Z,7
2023-05-16T11:12:27.910Z,6.6
2023-05-16T11:13:36.251Z,6.6
2023-05-16T11:14:44.620Z,6.6
2023-05-16T11:15:53.206Z,6.9
2023-05-16T11:17:01.561Z,6.9
2023-05-16T11:18:09.898Z,6.9
2023-05-16T11:19:18.491Z,7.2
2023-05-16T11:20:26.786Z,7.2
2023-05-16T11:21:35.116Z,7.2
2023-05-16T11:22:43.653Z,7.1
2023-05-16T11:23:51.992Z,7.1
2023-05-16T11:25:00.340Z,7.1
2023-05-16T11:26:08.898Z,7.1
2023-05-16T11:27:17.526Z,7.1
2023-05-16T11:28:25.800Z,7.1
2023-05-16T11:29:34.401Z,7.2
2023-05-16T11:30:42.752Z,7.2
2023-05-16T11:31:51.245Z,7.2
2023-05-16T11:32:59.690Z,7.1
2023-05-16T11:34:08.008Z,7.1
2023-05-16T11:35:16.372Z,7.1
2023-05-16T11:36:24.960Z,6.9
2023-05-16T11:37:33.313Z,6.9
2023-05-16T11:38:41.641Z,6.9
2023-05-16T11:39:50.240Z,7.1
2023-05-16T11:40:58.568Z,7.1
2023-05-16T11:42:06.929Z,7.1
2023-05-16T11:43:15.552Z,6.7
2023-05-16T11:44:24.818Z,6.7
2023-05-16T11:45:33.127Z,6.7
2023-05-16T11:46:41.765Z,7.5
2023-05-16T11:47:50.376Z,7.5
2023-05-16T11:48:58.375Z,7.5
2023-05-16T11:50:06.933Z,7.3
2023-05-16T11:51:15.293Z,7.3
2023-05-16T11:52:23.676Z,7.3
2023-05-16T11:53:32.277Z,7.1
2023-05-16T11:54:40.626Z,7.1
2023-05-16T11:55:52.395Z,7.1
2023-05-16T11:56:57.518Z,6.5
2023-05-16T11:58:06.856Z,6.5
2023-05-16T11:59:16.044Z,6.5
2023-05-16T12:00:24.406Z,7
2023-05-16T12:01:32.762Z,7
2023-05-16T12:02:41.198Z,7
2023-05-16T12:03:49.776Z,6
2023-05-16T12:04:58.062Z,6
2023-05-16T12:06:06.401Z,6
2023-05-16T12:07:14.952Z,6.3
2023-05-16T12:08:23.310Z,6.3
2023-05-16T12:09:31.654Z,6.3
2023-05-16T12:10:40.208Z,5.8
2023-05-16T12:11:48.569Z,5.8
2023-05-16T12:12:56.965Z,5.8
2023-05-16T12:14:05.506Z,5.7
2023-05-16T12:15:13.901Z,5.7
2023-05-16T12:16:22.250Z,5.7
2023-05-16T12:17:30.773Z,5.8
2023-05-16T12:18:40.600Z,5.8
2023-05-16T12:19:47.418Z,5.8
2023-05-16T12:20:55.977Z,8.5
2023-05-16T12:22:04.316Z,8.5
2023-05-16T12:23:12.669Z,8.5
2023-05-16T12:24:21.218Z,5.5
2023-05-16T12:25:29.871Z,5.5
2023-05-16T12:26:37.953Z,5.5
2023-05-16T12:27:46.499Z,5.3
2023-05-16T12:28:54.866Z,5.3
2023-05-16T12:30:03.252Z,5.3
2023-05-16T12:31:23.077Z,5.2
2023-05-16T12:32:20.182Z,5.2
2023-05-16T12:33:28.532Z,5.2
2023-05-16T12:34:37.084Z,5.4
2023-05-16T12:35:45.473Z,5.4
2023-05-16T12:36:53.776Z,5.4
2023-05-16T12:38:02.325Z,5.3
2023-05-16T12:39:10.673Z,5.3
2023-05-16T12:40:19.002Z,5.3
2023-05-16T12:41:27.565Z,5.1
2023-05-16T12:42:35.891Z,5.1
2023-05-16T12:43:44.226Z,5.1
2023-05-16T12:44:52.791Z,5.3
2023-05-16T12:46:01.148Z,5.3
2023-05-16T12:47:09.481Z,5.3
2023-05-16T12:48:18.142Z,5.1
2023-05-16T12:49:26.478Z,5.1
2023-05-16T12:50:34.852Z,5.1
2023-05-16T12:51:43.395Z,4.4
2023-05-16T12:52:51.747Z,4.4
2023-05-16T12:54:09.630Z,4.4
2023-05-16T12:55:08.671Z,4.1
2023-05-16T12:56:17.020Z,4.1
2023-05-16T12:57:26.074Z,4.1
2023-05-16T12:58:34.706Z,4.2
2023-05-16T12:59:43.009Z,4.2
2023-05-16T13:00:51.350Z,4.2
2023-05-16T13:02:00.022Z,4.4
2023-05-16T13:03:08.455Z,4.4
2023-05-16T13:04:16.954Z,4.4
2023-05-16T13:05:25.170Z,4.7
2023-05-16T13:06:45.306Z,4.7
2023-05-16T13:07:41.866Z,4.7
2023-05-16T13:08:50.427Z,5
2023-05-16T13:09:58.759Z,5
2023-05-16T13:11:07.091Z,5
2023-05-16T13:12:15.619Z,4.8
2023-05-16T13:13:35.303Z,4.8
2023-05-16T13:14:33.245Z,4.8
2023-05-16T13:15:41.823Z,4.3
2023-05-16T13:16:50.158Z,4.3
2023-05-16T13:17:58.518Z,4.3
2023-05-16T13:19:07.271Z,4.5
2023-05-16T13:20:15.701Z,4.5
2023-05-16T13:21:23.771Z,4.5
2023-05-16T13:22:32.334Z,4.6
2023-05-16T13:23:40.678Z,4.6
2023-05-16T13:24:49.018Z,4.6
2023-05-16T13:25:57.570Z,5
2023-05-16T13:27:05.910Z,5
2023-05-16T13:28:14.260Z,5
2023-05-16T13:29:22.823Z,5.2
2023-05-16T13:30:31.142Z,5.2
2023-05-16T13:31:39.573Z,5.2
2023-05-16T13:32:48.107Z,5.4
2023-05-16T13:33:56.395Z,5.4
2023-05-16T13:35:04.835Z,5.4
2023-05-16T13:36:13.301Z,5.3
2023-05-16T13:37:22.586Z,5.3
2023-05-16T13:38:30.931Z,5.3
2023-05-16T13:39:39.466Z,5.6
2023-05-16T13:40:47.830Z,5.6
2023-05-16T13:41:56.195Z,5.6
2023-05-16T13:43:04.741Z,5.6
2023-05-16T13:44:13.092Z,5.6
2023-05-16T13:45:21.432Z,5.6
2023-05-16T13:46:30.070Z,5.8
2023-05-16T13:47:38.449Z,5.8
2023-05-16T13:48:46.701Z,5.8
2023-05-16T13:49:55.250Z,5.4
2023-05-16T13:51:03.721Z,5.4
2023-05-16T13:52:11.924Z,5.4
2023-05-16T13:53:20.472Z,6
2023-05-16T13:54:28.877Z,6
2023-05-16T13:55:37.230Z,6
2023-05-16T13:56:45.845Z,5.8
2023-05-16T13:57:54.152Z,5.8
2023-05-16T13:59:06.787Z,5.8
2023-05-16T14:00:31.592Z,5.2
2023-05-16T14:01:19.421Z,5.2
2023-05-16T14:02:27.773Z,5.2
2023-05-16T14:03:36.352Z,5.1
2023-05-16T14:04:44.664Z,5.1
2023-05-16T14:05:53.020Z,5.1
2023-05-16T14:07:01.731Z,4.9
2023-05-16T14:08:09.895Z,4.9
2023-05-16T14:09:18.257Z,4.9
2023-05-16T14:10:27.047Z,5
2023-05-16T14:11:35.152Z,5
2023-05-16T14:12:43.509Z,5
2023-05-16T14:13:52.053Z,5.4
2023-05-16T14:15:00.420Z,5.4
2023-05-16T14:16:08.770Z,5.4
2023-05-16T14:17:17.310Z,4.4
2023-05-16T14:18:25.661Z,4.4
2023-05-16T14:19:34.229Z,4.4
2023-05-16T14:20:42.581Z,4.3
2023-05-16T14:21:50.911Z,4.3
2023-05-16T14:22:59.365Z,4.3
2023-05-16T14:24:07.801Z,3.9
2023-05-16T14:25:16.170Z,3.9
2023-05-16T14:26:24.501Z,3.9
2023-05-16T14:27:33.081Z,4.2
2023-05-16T14:28:41.444Z,4.2
2023-05-16T14:29:49.780Z,4.2
2023-05-16T14:30:58.327Z,3.9
2023-05-16T14:32:06.686Z,3.9
2023-05-16T14:33:16.032Z,3.9
2023-05-16T14:34:24.351Z,9.6
2023-05-16T14:35:32.693Z,9.6
2023-05-16T14:36:41.034Z,9.6
2023-05-16T14:37:49.565Z,5.4
2023-05-16T14:38:58.100Z,5.4
2023-05-16T14:40:06.329Z,5.4
2023-05-16T14:41:14.855Z,3.2
2023-05-16T14:42:23.198Z,3.2
2023-05-16T14:43:31.554Z,3.2
2023-05-16T14:44:40.124Z,3.6
2023-05-16T14:45:48.538Z,3.6
2023-05-16T14:46:56.874Z,3.6
2023-05-16T14:48:06.771Z,3.3
2023-05-16T14:49:13.804Z,3.3
2023-05-16T14:50:22.147Z,3.3
2023-05-16T14:51:30.693Z,3.3
2023-05-16T14:52:39.043Z,3.3
2023-05-16T14:53:47.786Z,3.3
2023-05-16T14:54:56.470Z,3.2
2023-05-16T14:56:04.702Z,3.2
2023-05-16T14:57:13.017Z,3.2
2023-05-16T14:58:21.616Z,3.2
2023-05-16T14:59:30.864Z,3.2
2023-05-16T15:00:39.177Z,3.2
2023-05-16T15:01:48.758Z,3.3
2023-05-16T15:02:57.077Z,3.3
2023-05-16T15:04:05.336Z,3.3
2023-05-16T15:05:13.920Z,3.2
2023-05-16T15:06:22.222Z,3.2
2023-05-16T15:07:30.587Z,3.2
2023-05-16T15:08:39.132Z,3.1
2023-05-16T15:09:47.488Z,3.1
2023-05-16T15:10:56.069Z,3.1
2023-05-16T15:45:00.569Z,0
2023-05-16T15:46:08.993Z,0
2023-05-16T15:47:17.203Z,0
2023-05-16T15:48:25.751Z,3.4